createdAt,value
2023-07-25T00:01:10.176Z,95807.66
2023-07-25T00:03:38.156Z,95804.47
2023-07-25T00:06:06.744Z,95792.31
2023-07-25T00:08:35.670Z,95794.97
2023-07-25T00:11:03.342Z,95785.47
2023-07-25T00:13:30.922Z,95784.91
2023-07-25T00:15:58.803Z,95781.72
2023-07-25T00:18:26.423Z,95781.16
2023-07-25T00:20:54.001Z,95771.13
2023-07-25T00:23:21.545Z,95761.06
2023-07-25T00:25:50.549Z,95766.31
2023-07-25T00:28:18.241Z,95767.38
2023-07-25T00:30:45.761Z,95760.50
2023-07-25T00:33:13.336Z,95754.66
2023-07-25T00:35:40.902Z,95756.75
2023-07-25T00:38:08.451Z,95755.16
2023-07-25T00:40:39.898Z,95751.97
2023-07-25T00:43:08.805Z,95751.63
2023-07-25T00:45:36.434Z,95758.44
2023-07-25T00:48:04.243Z,95756.81
2023-07-25T00:50:32.060Z,95756.50
2023-07-25T00:53:00.867Z,95744.31
2023-07-25T00:55:29.317Z,95752.38
2023-07-25T00:57:56.992Z,95755.97
2023-07-25T01:00:25.874Z,95753.00
2023-07-25T01:02:53.645Z,95748.78
2023-07-25T01:05:21.633Z,95743.97
2023-07-25T01:07:49.213Z,95744.78
2023-07-25T01:10:17.090Z,95745.59
2023-07-25T01:12:44.650Z,95747.19
2023-07-25T01:15:12.272Z,95741.91
2023-07-25T01:17:41.165Z,95742.69
2023-07-25T01:20:11.708Z,95738.50
2023-07-25T01:22:40.971Z,95735.63
2023-07-25T01:25:10.562Z,95733.28
2023-07-25T01:27:38.160Z,95727.56
2023-07-25T01:30:06.795Z,95733.13
2023-07-25T01:32:34.414Z,95728.44
2023-07-25T01:35:02.015Z,95727.97
2023-07-25T01:37:29.549Z,95738.56
2023-07-25T01:39:57.124Z,95734.88
2023-07-25T01:42:26.112Z,95725.94
2023-07-25T01:44:53.665Z,95721.19
2023-07-25T01:47:26.425Z,95712.16
2023-07-25T01:49:54.670Z,95714.47
2023-07-25T01:52:22.843Z,95709.69
2023-07-25T01:54:51.615Z,95704.91
2023-07-25T01:57:19.176Z,95707.75
2023-07-25T01:59:48.065Z,95696.44
2023-07-25T02:02:15.669Z,95711.44
2023-07-25T02:04:43.265Z,95705.38
2023-07-25T02:07:10.844Z,95707.75
2023-07-25T02:09:38.525Z,95705.38
2023-07-25T02:12:07.021Z,95696.13
2023-07-25T02:14:34.682Z,95688.72
2023-07-25T02:17:03.705Z,95682.09
2023-07-25T02:19:31.256Z,95684.72
2023-07-25T02:21:58.843Z,95668.38
2023-07-25T02:24:26.453Z,95664.63
2023-07-25T02:26:54.035Z,95660.31
2023-07-25T02:29:21.587Z,95655.00
2023-07-25T02:31:49.163Z,95649.41
2023-07-25T02:34:18.358Z,95645.44
2023-07-25T02:36:45.994Z,95636.75
2023-07-25T02:39:13.726Z,95618.31
2023-07-25T02:41:41.333Z,95613.06
2023-07-25T02:44:08.895Z,95611.22
2023-07-25T02:46:36.508Z,95594.66
2023-07-25T02:49:04.144Z,95590.44
2023-07-25T02:51:33.507Z,95600.97
2023-07-25T02:54:01.277Z,95611.94
2023-07-25T02:56:29.826Z,95614.03
2023-07-25T02:58:57.497Z,95616.66
2023-07-25T03:01:25.389Z,95610.84
2023-07-25T03:03:52.954Z,95597.13
2023-07-25T03:06:20.547Z,95592.69
2023-07-25T03:08:49.448Z,95586.94
2023-07-25T03:11:17.019Z,95578.53
2023-07-25T03:13:44.585Z,95576.78
2023-07-25T03:16:12.229Z,95577.66
2023-07-25T03:18:40.228Z,95584.84
2023-07-25T03:21:07.808Z,95584.34
2023-07-25T03:23:35.372Z,95592.47
2023-07-25T03:26:04.712Z,95597.16
2023-07-25T03:28:32.337Z,95593.75
2023-07-25T03:30:59.966Z,95601.41
2023-07-25T03:33:28.740Z,95602.44
2023-07-25T03:35:56.570Z,95594.53
2023-07-25T03:38:24.299Z,95596.38
2023-07-25T03:40:51.878Z,95599.00
2023-07-25T03:43:21.981Z,95600.63
2023-07-25T03:45:49.797Z,95598.00
2023-07-25T03:48:17.472Z,95598.22
2023-07-25T03:50:45.055Z,95603.16
2023-07-25T03:53:12.650Z,95606.84
2023-07-25T03:55:40.282Z,95617.66
2023-07-25T03:58:07.897Z,95622.22
2023-07-25T04:00:36.789Z,95629.63
2023-07-25T04:03:14.293Z,95635.22
2023-07-25T04:05:43.217Z,95628.13
2023-07-25T04:08:10.828Z,95622.63
2023-07-25T04:10:38.403Z,95624.19
2023-07-25T04:13:05.984Z,95612.38
2023-07-25T04:15:33.553Z,95615.56
2023-07-25T04:18:02.727Z,95622.72
2023-07-25T04:20:30.348Z,95618.81
2023-07-25T04:22:59.765Z,95620.97
2023-07-25T04:25:27.756Z,95629.44
2023-07-25T04:27:55.341Z,95633.41
2023-07-25T04:30:22.896Z,95634.19
2023-07-25T04:32:50.500Z,95626.31
2023-07-25T04:35:19.636Z,95622.09
2023-07-25T04:37:47.246Z,95619.69
2023-07-25T04:40:15.722Z,95608.38
2023-07-25T04:42:43.334Z,95610.44
2023-07-25T04:45:12.491Z,95610.44
2023-07-25T04:47:40.122Z,95609.41
2023-07-25T04:50:08.239Z,95602.56
2023-07-25T04:52:37.166Z,95614.66
2023-07-25T04:55:04.922Z,95619.94
2023-07-25T04:57:32.505Z,95615.22
2023-07-25T05:00:00.152Z,95607.88
2023-07-25T05:02:27.792Z,95602.13
2023-07-25T05:04:55.414Z,95608.47
2023-07-25T05:07:22.982Z,95598.78
2023-07-25T05:09:52.090Z,95609.59
2023-07-25T05:12:19.641Z,95595.41
2023-07-25T05:14:47.188Z,95599.94
2023-07-25T05:17:14.796Z,95597.38
2023-07-25T05:19:43.178Z,95616.69
2023-07-25T05:25:12.718Z,95647.38
2023-07-25T05:28:11.826Z,95630.03
2023-07-25T06:22:45.554Z,95625.16
2023-07-25T07:05:42.276Z,95615.47
2023-07-25T07:15:36.218Z,95615.97
2023-07-25T07:26:40.876Z,95609.94
2023-07-25T07:29:08.957Z,95604.91
2023-07-25T07:31:36.770Z,95607.28
2023-07-25T07:34:52.194Z,95604.69
2023-07-25T07:37:20.085Z,95595.22
2023-07-25T07:39:49.777Z,95592.31
2023-07-25T07:42:17.681Z,95594.19
2023-07-25T07:44:45.822Z,95598.97
2023-07-25T07:47:13.694Z,95603.75
2023-07-25T07:49:41.628Z,95608.50
2023-07-25T07:52:17.642Z,95606.97
2023-07-25T07:54:51.885Z,95597.25
2023-07-25T07:57:19.553Z,95597.03
2023-07-25T07:59:47.444Z,95594.44
2023-07-25T08:02:15.316Z,95597.59
2023-07-25T08:04:43.039Z,95595.78
2023-07-25T08:07:10.827Z,95594.25
2023-07-25T08:09:38.499Z,95598.81
2023-07-25T08:12:09.080Z,95613.88
2023-07-25T08:14:36.770Z,95607.28
2023-07-25T08:17:04.819Z,95610.19
2023-07-25T08:19:32.450Z,95623.44
2023-07-25T08:22:00.178Z,95627.41
2023-07-25T08:24:27.807Z,95642.72
2023-07-25T08:26:55.441Z,95635.03
2023-07-25T08:29:24.526Z,95631.59
2023-07-25T08:31:52.363Z,95643.44
2023-07-25T08:34:20.057Z,95644.75
2023-07-25T08:36:47.781Z,95631.28
2023-07-25T08:39:15.697Z,95633.69
2023-07-25T08:41:47.709Z,95644.81
2023-07-25T08:44:18.637Z,95643.19
2023-07-25T08:46:47.832Z,95640.53
2023-07-25T08:49:17.558Z,95651.56
2023-07-25T08:51:46.904Z,95643.63
2023-07-25T08:54:22.223Z,95641.47
2023-07-25T08:56:50.313Z,95635.66
2023-07-25T08:59:19.254Z,95637.00
2023-07-25T09:01:48.596Z,95634.13
2023-07-25T09:04:16.766Z,95629.44
2023-07-25T09:06:44.578Z,95628.41
2023-07-25T09:09:12.617Z,95630.53
2023-07-25T09:11:40.490Z,95633.94
2023-07-25T09:14:08.115Z,95621.56
2023-07-25T09:16:36.147Z,95625.25
2023-07-25T09:19:05.305Z,95621.84
2023-07-25T09:21:33.362Z,95623.19
2023-07-25T09:24:01.956Z,95625.03
2023-07-25T09:26:32.845Z,95621.66
2023-07-25T09:29:01.919Z,95621.97
2023-07-25T09:31:30.803Z,95618.56
2023-07-25T09:33:59.128Z,95609.59
2023-07-25T09:36:31.056Z,95603.75
2023-07-25T09:38:59.878Z,95602.69
2023-07-25T09:41:27.758Z,95606.38
2023-07-25T09:43:55.464Z,95600.50
2023-07-25T09:46:23.081Z,95594.16
2023-07-25T09:48:53.946Z,95591.47
2023-07-25T09:51:21.532Z,95580.28
2023-07-25T09:53:54.576Z,95577.59
2023-07-25T09:56:30.497Z,95583.09
2023-07-25T09:59:06.736Z,95585.94
2023-07-25T10:01:36.008Z,95577.38
2023-07-25T10:04:05.067Z,95571.47
2023-07-25T10:06:37.795Z,95567.69
2023-07-25T10:09:07.738Z,95561.53
2023-07-25T10:11:35.886Z,95560.63
2023-07-25T10:14:03.670Z,95566.44
2023-07-25T10:16:31.351Z,95564.56
2023-07-25T10:19:02.534Z,95578.63
2023-07-25T10:21:48.414Z,95586.06
2023-07-25T10:24:18.065Z,95587.69
2023-07-25T10:26:56.047Z,95589.63
2023-07-25T10:29:42.707Z,95596.09
2023-07-25T10:32:11.986Z,95594.84
2023-07-25T10:34:48.302Z,95586.94
2023-07-25T10:37:24.175Z,95595.97
2023-07-25T10:40:12.141Z,95600.69
2023-07-25T10:45:23.014Z,95602.63
2023-07-25T10:47:51.100Z,95591.44
2023-07-25T10:50:20.424Z,95596.16
2023-07-25T10:52:48.967Z,95589.31
2023-07-25T10:55:18.015Z,95588.84
2023-07-25T10:58:09.608Z,95590.16
2023-07-25T11:00:37.928Z,95593.06
2023-07-25T11:03:30.196Z,95586.63
2023-07-25T11:06:41.726Z,95594.47
2023-07-25T11:09:13.726Z,95583.53
2023-07-25T11:11:47.052Z,95572.13
2023-07-25T11:14:16.969Z,95572.97
2023-07-25T11:16:44.959Z,95567.09
2023-07-25T11:19:12.995Z,95557.16
2023-07-25T11:21:41.636Z,95563.44
2023-07-25T11:24:10.607Z,95563.13
2023-07-25T11:26:38.423Z,95550.94
2023-07-25T11:29:09.011Z,95549.00
2023-07-25T11:31:42.971Z,95555.25
2023-07-25T11:34:12.606Z,95547.13
2023-07-25T11:36:40.616Z,95539.63
2023-07-25T11:39:09.802Z,95523.88
2023-07-25T11:41:38.105Z,95525.13
2023-07-25T11:44:11.289Z,95529.25
2023-07-25T11:46:40.330Z,95539.75
2023-07-25T11:49:09.634Z,95532.28
2023-07-25T11:51:38.943Z,95515.75
2023-07-25T11:54:07.414Z,95517.88
2023-07-25T11:56:36.502Z,95520.03
2023-07-25T11:59:04.369Z,95517.88
2023-07-25T12:01:35.702Z,95511.72
2023-07-25T12:04:04.016Z,95517.00
2023-07-25T12:06:33.610Z,95516.69
2023-07-25T12:09:03.104Z,95526.31
2023-07-25T12:11:31.228Z,95515.50
2023-07-25T12:13:59.825Z,95516.50
2023-07-25T12:16:33.762Z,95520.44
2023-07-25T12:19:03.266Z,95523.16
2023-07-25T12:21:32.450Z,95535.72
2023-07-25T12:24:03.272Z,95524.44
2023-07-25T12:26:32.001Z,95523.75
2023-07-25T12:29:01.168Z,95524.69
2023-07-25T12:31:29.713Z,95520.50
2023-07-25T12:33:58.644Z,95514.69
2023-07-25T12:36:26.258Z,95500.81
2023-07-25T12:38:53.803Z,95497.88
2023-07-25T12:41:22.770Z,95500.63
2023-07-25T12:43:50.364Z,95510.00
2023-07-25T12:46:18.017Z,95508.69
2023-07-25T12:48:45.720Z,95509.22
2023-07-25T12:51:14.775Z,95513.94
2023-07-25T12:53:43.237Z,95507.84
2023-07-25T12:56:10.927Z,95512.72
2023-07-25T12:58:38.560Z,95523.97
2023-07-25T13:01:06.603Z,95528.88
2023-07-25T13:03:37.837Z,95534.50
2023-07-25T13:06:05.727Z,95520.16
2023-07-25T13:08:34.786Z,95520.16
2023-07-25T13:11:02.917Z,95547.78
2023-07-25T13:13:30.546Z,95571.59
2023-07-25T13:15:58.264Z,95591.38
2023-07-25T13:18:25.947Z,95592.34
2023-07-25T13:20:53.575Z,95604.38
2023-07-25T13:23:21.272Z,95614.06
2023-07-25T13:25:50.266Z,95617.56
2023-07-25T13:28:18.067Z,95616.34
2023-07-25T13:30:45.742Z,95615.28
2023-07-25T13:33:13.399Z,95604.19
2023-07-25T13:35:41.094Z,95610.53
2023-07-25T13:38:08.794Z,95613.19
2023-07-25T13:40:36.463Z,95613.72
2023-07-25T13:43:05.506Z,95610.03
2023-07-25T13:45:49.743Z,95603.16
2023-07-25T13:48:19.971Z,95612.72
2023-07-25T13:50:53.915Z,95607.66
2023-07-25T13:53:22.679Z,95616.66
2023-07-25T13:55:50.291Z,95619.06
2023-07-25T14:00:50.108Z,95613.78
2023-07-25T14:03:17.826Z,95607.69
2023-07-25T14:05:45.448Z,95610.59
2023-07-25T14:08:13.211Z,95613.78
2023-07-25T14:10:41.888Z,95606.38
2023-07-25T14:13:09.575Z,95616.72
2023-07-25T14:15:38.856Z,95614.34
2023-07-25T14:18:06.544Z,95616.44
2023-07-25T14:20:34.433Z,95626.50
2023-07-25T14:23:02.061Z,95636.56
2023-07-25T14:25:29.669Z,95633.94
2023-07-25T14:27:57.254Z,95638.72
2023-07-25T14:30:25.576Z,95649.28
2023-07-25T14:32:54.545Z,95645.84
2023-07-25T14:35:22.239Z,95648.16
2023-07-25T14:37:56.742Z,95654.00
2023-07-25T14:40:25.829Z,95657.16
2023-07-25T14:42:53.531Z,95659.25
2023-07-25T14:45:21.164Z,95658.72
2023-07-25T14:47:48.940Z,95660.81
2023-07-25T14:50:18.202Z,95661.34
2023-07-25T14:52:45.798Z,95668.22
2023-07-25T14:55:14.012Z,95673.50
2023-07-25T14:57:41.770Z,95665.03
2023-07-25T15:00:10.698Z,95665.56
2023-07-25T15:02:38.407Z,95664.00
2023-07-25T15:05:06.778Z,95663.47
2023-07-25T15:07:36.068Z,95670.06
2023-07-25T15:10:03.958Z,95661.06
2023-07-25T15:12:32.429Z,95661.84
2023-07-25T15:15:00.230Z,95659.75
2023-07-25T15:17:28.426Z,95652.31
2023-07-25T15:19:59.570Z,95660.78
2023-07-25T15:22:27.242Z,95666.59
2023-07-25T15:24:56.472Z,95661.31
2023-07-25T15:27:24.361Z,95673.50
2023-07-25T15:29:52.244Z,95678.78
2023-07-25T15:32:19.833Z,95678.78
2023-07-25T15:34:47.454Z,95683.00
2023-07-25T15:37:15.010Z,95690.41
2023-07-25T15:39:42.600Z,95681.41
2023-07-25T15:42:13.064Z,95685.34
2023-07-25T15:44:40.713Z,95693.53
2023-07-25T15:47:08.304Z,95692.22
2023-07-25T15:49:35.914Z,95680.63
2023-07-25T15:52:03.577Z,95671.66
2023-07-25T15:54:31.174Z,95667.19
2023-07-25T15:56:58.756Z,95660.81
2023-07-25T15:59:27.674Z,95679.34
2023-07-25T16:01:55.286Z,95669.28
2023-07-25T16:04:22.839Z,95681.75
2023-07-25T16:06:50.429Z,95673.56
2023-07-25T16:09:18.021Z,95670.66
2023-07-25T16:11:45.633Z,95681.22
2023-07-25T16:14:13.236Z,95680.94
2023-07-25T16:16:43.295Z,95683.06
2023-07-25T16:19:11.025Z,95676.16
2023-07-25T16:21:38.708Z,95676.16
2023-07-25T16:24:06.529Z,95682.50
2023-07-25T16:26:34.203Z,95679.88
2023-07-25T16:29:01.789Z,95676.69
2023-07-25T16:31:44.762Z,95677.19
2023-07-25T16:34:15.967Z,95675.88
2023-07-25T16:36:43.618Z,95686.44
2023-07-25T16:39:11.782Z,95691.97
2023-07-25T16:41:39.408Z,95694.56
2023-07-25T16:44:06.962Z,95689.50
2023-07-25T16:46:34.584Z,95700.31
2023-07-25T16:49:02.195Z,95703.97
2023-07-25T16:51:31.621Z,95701.31
2023-07-25T16:53:59.480Z,95706.63
2023-07-25T16:56:27.105Z,95713.50
2023-07-25T16:58:54.826Z,95710.34
2023-07-25T17:01:22.480Z,95717.72
2023-07-25T17:03:50.279Z,95719.28
2023-07-25T17:06:17.911Z,95721.13
2023-07-25T17:08:48.305Z,95721.91
2023-07-25T17:11:16.717Z,95726.34
2023-07-25T17:13:44.356Z,95721.06
2023-07-25T17:16:12.002Z,95733.78
2023-07-25T17:18:39.599Z,95735.59
2023-07-25T17:21:07.303Z,95744.34
2023-07-25T17:23:35.099Z,95743.00
2023-07-25T17:26:04.128Z,95738.19
2023-07-25T17:28:31.861Z,95740.28
2023-07-25T17:30:59.614Z,95728.16
2023-07-25T17:33:27.629Z,95724.97
2023-07-25T17:35:55.206Z,95728.09
2023-07-25T17:38:22.805Z,95729.94
2023-07-25T17:40:50.450Z,95729.47
2023-07-25T17:43:19.579Z,95727.59
2023-07-25T17:45:47.272Z,95731.81
2023-07-25T17:48:17.755Z,95736.88
2023-07-25T17:50:45.697Z,95743.19
2023-07-25T17:53:13.620Z,95746.66
2023-07-25T17:55:41.936Z,95756.13
2023-07-25T17:58:11.754Z,95764.53
2023-07-25T18:00:40.797Z,95802.53
2023-07-25T18:03:08.743Z,95795.50
2023-07-25T18:05:36.542Z,95799.19
2023-07-25T18:08:04.189Z,95807.59
2023-07-25T18:10:31.830Z,95813.91
2023-07-25T18:12:59.378Z,95820.53
2023-07-25T18:15:28.610Z,95815.06
2023-07-25T18:17:59.312Z,95822.81
2023-07-25T18:20:27.011Z,95827.69
2023-07-25T18:22:55.844Z,95826.56
2023-07-25T18:25:24.731Z,95834.19
2023-07-25T18:27:54.086Z,95842.31
2023-07-25T18:30:22.039Z,95849.66
2023-07-25T18:32:49.800Z,95854.69
2023-07-25T18:35:21.328Z,95864.19
2023-07-25T18:37:49.051Z,95867.31
2023-07-25T18:40:17.379Z,95872.34
2023-07-25T18:42:45.038Z,95876.56
2023-07-25T18:48:19.814Z,95879.38
2023-07-25T18:50:48.894Z,95882.72
2023-07-25T18:53:16.480Z,95880.09
2023-07-25T18:55:44.049Z,95888.22
2023-07-25T18:58:11.623Z,95891.91
2023-07-25T19:00:39.218Z,95900.59
2023-07-25T19:03:06.845Z,95905.84
2023-07-25T19:05:34.475Z,95910.56
2023-07-25T19:08:03.453Z,95910.00
2023-07-25T19:10:31.100Z,95917.91
2023-07-25T19:12:58.743Z,95920.16
2023-07-25T19:15:26.505Z,95914.59
2023-07-25T19:17:54.305Z,95921.16
2023-07-25T19:20:22.011Z,95934.06
2023-07-25T19:22:49.718Z,95935.09
2023-07-25T19:25:18.947Z,95945.06
2023-07-25T19:27:49.178Z,95938.13
2023-07-25T19:30:16.864Z,95945.44
2023-07-25T19:32:44.785Z,95944.88
2023-07-25T19:35:12.519Z,95962.84
2023-07-25T19:37:41.365Z,95972.56
2023-07-25T19:40:10.133Z,95974.06
2023-07-25T19:42:39.633Z,95968.94
2023-07-25T19:45:08.024Z,95970.47
2023-07-25T19:47:35.692Z,95981.44
2023-07-25T19:50:03.316Z,95992.19
2023-07-25T19:52:30.929Z,96000.34
2023-07-25T19:54:58.548Z,96006.53
2023-07-25T19:57:26.154Z,96008.59
2023-07-25T19:59:55.085Z,96022.00
2023-07-25T20:02:22.711Z,96022.25
2023-07-25T20:04:50.644Z,96029.09
2023-07-25T20:07:18.337Z,96030.13
2023-07-25T20:09:45.952Z,96029.44
2023-07-25T20:12:13.695Z,96034.59
2023-07-25T20:14:41.375Z,96034.81
2023-07-25T20:17:10.476Z,96045.91
2023-07-25T20:19:38.187Z,96046.50
2023-07-25T20:22:06.112Z,96056.66
2023-07-25T20:24:33.779Z,96052.78
2023-07-25T20:27:01.667Z,96056.81
2023-07-25T20:29:30.462Z,96058.50
2023-07-25T20:31:58.335Z,96058.63
2023-07-25T20:34:27.429Z,96060.13
2023-07-25T20:36:55.537Z,96062.19
2023-07-25T20:39:23.206Z,96066.28
2023-07-25T20:41:51.509Z,96062.28
2023-07-25T20:44:19.121Z,96080.09
2023-07-25T20:46:46.704Z,96078.69
2023-07-25T20:49:14.352Z,96082.81
2023-07-25T20:51:43.419Z,96080.63
2023-07-25T20:54:11.909Z,96087.50
2023-07-25T20:56:39.511Z,96089.56
2023-07-25T20:59:07.158Z,96094.00
2023-07-25T21:01:34.846Z,96096.97
2023-07-25T21:04:02.446Z,96094.34
2023-07-25T21:06:30.566Z,96097.66
2023-07-25T21:08:59.881Z,96098.91
2023-07-25T21:11:27.457Z,96092.03
2023-07-25T21:13:55.004Z,96092.28
2023-07-25T21:16:22.612Z,96094.09
2023-07-25T21:18:50.242Z,96098.34
2023-07-25T21:21:18.113Z,96098.78
2023-07-25T21:23:45.679Z,96099.22
2023-07-25T21:26:14.648Z,96102.31
2023-07-25T21:28:42.200Z,96105.97
2023-07-25T21:31:10.894Z,96104.13
2023-07-25T21:33:38.621Z,96107.56
2023-07-25T21:36:12.045Z,96110.78
2023-07-25T21:38:40.646Z,96106.31
2023-07-25T21:41:09.869Z,96108.75
2023-07-25T21:43:38.780Z,96121.41
2023-07-25T21:46:06.383Z,96118.34
2023-07-25T21:48:34.020Z,96124.16
2023-07-25T21:51:01.894Z,96135.25
2023-07-25T21:53:31.007Z,96124.75
2023-07-25T21:55:59.540Z,96131.63
2023-07-25T21:58:29.175Z,96132.19
2023-07-25T22:00:59.538Z,96135.41
2023-07-25T22:03:29.039Z,96134.81
2023-07-25T22:05:57.210Z,96140.09
2023-07-25T22:08:24.978Z,96142.47
2023-07-25T22:10:54.964Z,96145.34
2023-07-25T22:13:23.047Z,96148.97
2023-07-25T22:15:50.764Z,96153.44
2023-07-25T22:18:19.775Z,96149.88
2023-07-25T22:20:52.453Z,96153.19
2023-07-25T22:23:21.134Z,96156.47
2023-07-25T22:25:48.874Z,96160.72
2023-07-25T22:28:16.717Z,96168.25
2023-07-25T22:30:44.299Z,96162.88
2023-07-25T22:33:11.936Z,96161.03
2023-07-25T22:36:33.835Z,96167.75
2023-07-25T22:39:26.616Z,96168.78
2023-07-25T22:47:31.606Z,96172.31
2023-07-25T22:50:17.141Z,96178.81
2023-07-25T22:52:59.902Z,96175.81
2023-07-25T23:01:46.423Z,96176.38
2023-07-25T23:04:35.108Z,96177.41
2023-07-25T23:07:21.595Z,96179.00
2023-07-25T23:10:29.995Z,96177.75
2023-07-25T23:13:10.836Z,96180.19
2023-07-25T23:16:07.920Z,96184.56
2023-07-25T23:18:52.684Z,96179.06
2023-07-25T23:21:33.819Z,96182.47
2023-07-25T23:30:44.755Z,96188.19
2023-07-25T23:33:47.500Z,96190.16
2023-07-25T23:36:34.677Z,96193.81
2023-07-25T23:39:09.453Z,96200.00
2023-07-25T23:41:52.372Z,96202.19
2023-07-25T23:44:31.070Z,96202.19
2023-07-25T23:47:20.994Z,96199.78
2023-07-25T23:50:11.062Z,96209.50
2023-07-25T23:52:52.297Z,96199.88
2023-07-25T23:55:25.784Z,96210.00
2023-07-25T23:58:17.564Z,96211.25
